sensor_id;sensor_type;location;lat;lon;timestamp;pressure;altitude;pressure_sealevel;temperature;humidity
70458;BME280;57919;56.194;95.716;2023-02-03T00:06:53;100286.00;;;-18.14;67.26
70458;BME280;57919;56.194;95.716;2023-02-03T00:16:55;100298.72;;;-18.19;66.65
70458;BME280;57919;56.194;95.716;2023-02-03T00:26:57;100257.19;;;-18.44;67.52
70458;BME280;57919;56.194;95.716;2023-02-03T00:36:58;100285.81;;;-18.19;67.21
70458;BME280;57919;56.194;95.716;2023-02-03T00:47:00;100281.59;;;-18.17;67.14
70458;BME280;57919;56.194;95.716;2023-02-03T00:57:03;100254.94;;;-18.37;66.57
70458;BME280;57919;56.194;95.716;2023-02-03T01:07:06;100299.34;;;-18.24;67.77
70458;BME280;57919;56.194;95.716;2023-02-03T01:17:10;100306.75;;;-18.32;67.68
70458;BME280;57919;56.194;95.716;2023-02-03T01:27:12;100311.03;;;-18.33;66.53
70458;BME280;57919;56.194;95.716;2023-02-03T01:37:14;100306.53;;;-18.37;67.12
70458;BME280;57919;56.194;95.716;2023-02-03T01:47:28;100300.16;;;-18.45;66.62
70458;BME280;57919;56.194;95.716;2023-02-03T01:57:53;100286.94;;;-18.52;65.79
70458;BME280;57919;56.194;95.716;2023-02-03T02:07:57;100299.81;;;-18.33;66.04
70458;BME280;57919;56.194;95.716;2023-02-03T02:18:23;100273.47;;;-18.26;66.01
70458;BME280;57919;56.194;95.716;2023-02-03T02:49:34;100275.28;;;-18.63;66.19
70458;BME280;57919;56.194;95.716;2023-02-03T02:59:38;100257.59;;;-18.54;65.85
70458;BME280;57919;56.194;95.716;2023-02-03T03:09:51;100247.16;;;-17.53;66.09
70458;BME280;57919;56.194;95.716;2023-02-03T03:19:56;100226.28;;;-16.91;63.47
70458;BME280;57919;56.194;95.716;2023-02-03T03:30:05;100229.88;;;-16.13;63.68
70458;BME280;57919;56.194;95.716;2023-02-03T03:40:17;100202.66;;;-15.46;62.30
70458;BME280;57919;56.194;95.716;2023-02-03T03:50:28;100199.31;;;-15.42;61.31
70458;BME280;57919;56.194;95.716;2023-02-03T04:00:34;100180.53;;;-14.44;61.79
70458;BME280;57919;56.194;95.716;2023-02-03T04:10:39;100164.03;;;-13.75;60.73
70458;BME280;57919;56.194;95.716;2023-02-03T04:20:42;100196.00;;;-13.43;61.03
70458;BME280;57919;56.194;95.716;2023-02-03T04:30:44;100155.25;;;-13.43;60.12
70458;BME280;57919;56.194;95.716;2023-02-03T04:40:46;100152.34;;;-12.27;60.70
70458;BME280;57919;56.194;95.716;2023-02-03T04:50:48;100134.34;;;-11.56;57.98
70458;BME280;57919;56.194;95.716;2023-02-03T05:00:50;100123.56;;;-11.20;58.46
70458;BME280;57919;56.194;95.716;2023-02-03T05:10:52;100105.63;;;-10.91;57.86
70458;BME280;57919;56.194;95.716;2023-02-03T05:20:54;100108.31;;;-10.86;56.67
70458;BME280;57919;56.194;95.716;2023-02-03T05:31:00;100096.38;;;-10.61;57.60
70458;BME280;57919;56.194;95.716;2023-02-03T05:41:03;100073.41;;;-9.97;56.29
70458;BME280;57919;56.194;95.716;2023-02-03T05:51:23;100069.22;;;-9.74;53.26
70458;BME280;57919;56.194;95.716;2023-02-03T06:01:25;100045.06;;;-9.20;55.95
70458;BME280;57919;56.194;95.716;2023-02-03T06:11:27;100069.69;;;-8.72;55.52
70458;BME280;57919;56.194;95.716;2023-02-03T06:21:29;100062.66;;;-8.85;54.47
70458;BME280;57919;56.194;95.716;2023-02-03T06:31:31;100038.84;;;-9.44;53.89
70458;BME280;57919;56.194;95.716;2023-02-03T06:41:33;100055.44;;;-9.44;56.22
70458;BME280;57919;56.194;95.716;2023-02-03T06:51:35;100047.75;;;-9.00;55.83
70458;BME280;57919;56.194;95.716;2023-02-03T07:01:38;100029.47;;;-8.83;56.26
70458;BME280;57919;56.194;95.716;2023-02-03T07:11:40;100046.78;;;-9.25;55.80
70458;BME280;57919;56.194;95.716;2023-02-03T07:21:42;100002.81;;;-9.87;56.18
70458;BME280;57919;56.194;95.716;2023-02-03T07:31:44;100005.47;;;-9.82;56.33
70458;BME280;57919;56.194;95.716;2023-02-03T07:41:46;100043.69;;;-10.04;56.91
70458;BME280;57919;56.194;95.716;2023-02-03T07:51:48;100018.31;;;-10.16;56.31
70458;BME280;57919;56.194;95.716;2023-02-03T08:01:50;100034.13;;;-10.03;57.23
70458;BME280;57919;56.194;95.716;2023-02-03T08:11:52;100024.63;;;-9.86;56.94
70458;BME280;57919;56.194;95.716;2023-02-03T08:21:53;100025.16;;;-10.37;56.89
70458;BME280;57919;56.194;95.716;2023-02-03T08:31:55;99978.94;;;-10.40;57.40
70458;BME280;57919;56.194;95.716;2023-02-03T08:41:59;99985.09;;;-10.35;57.33
70458;BME280;57919;56.194;95.716;2023-02-03T08:52:01;100012.22;;;-10.16;57.42
70458;BME280;57919;56.194;95.716;2023-02-03T09:02:05;99996.50;;;-10.22;56.96
70458;BME280;57919;56.194;95.716;2023-02-03T09:12:08;100011.22;;;-10.35;57.07
70458;BME280;57919;56.194;95.716;2023-02-03T09:22:12;100008.41;;;-10.59;57.67
70458;BME280;57919;56.194;95.716;2023-02-03T09:32:14;100022.09;;;-10.85;57.80
70458;BME280;57919;56.194;95.716;2023-02-03T09:42:47;100028.13;;;-10.90;58.67
70458;BME280;57919;56.194;95.716;2023-02-03T09:52:53;100004.44;;;-11.07;58.36
70458;BME280;57919;56.194;95.716;2023-02-03T10:13:11;100026.84;;;-11.27;58.44
70458;BME280;57919;56.194;95.716;2023-02-03T10:23:19;100031.06;;;-11.38;59.36
70458;BME280;57919;56.194;95.716;2023-02-03T10:33:28;100036.91;;;-11.58;58.94
70458;BME280;57919;56.194;95.716;2023-02-03T10:43:31;100024.22;;;-11.97;58.78
70458;BME280;57919;56.194;95.716;2023-02-03T10:53:49;100042.06;;;-12.23;58.97
70458;BME280;57919;56.194;95.716;2023-02-03T11:04:00;100042.38;;;-12.57;59.11
70458;BME280;57919;56.194;95.716;2023-02-03T11:24:23;100036.06;;;-13.18;59.40
70458;BME280;57919;56.194;95.716;2023-02-03T11:34:29;100003.31;;;-13.52;59.13
70458;BME280;57919;56.194;95.716;2023-02-03T11:44:31;100032.38;;;-13.72;58.77
70458;BME280;57919;56.194;95.716;2023-02-03T12:05:20;100033.72;;;-13.89;60.00
70458;BME280;57919;56.194;95.716;2023-02-03T12:36:26;100026.50;;;-13.63;60.46
70458;BME280;57919;56.194;95.716;2023-02-03T12:46:43;100011.94;;;-13.53;60.08
70458;BME280;57919;56.194;95.716;2023-02-03T12:56:50;100022.31;;;-13.55;60.28
70458;BME280;57919;56.194;95.716;2023-02-03T13:17:27;100031.63;;;-13.66;60.18
70458;BME280;57919;56.194;95.716;2023-02-03T13:38:13;100039.25;;;-13.74;60.30
70458;BME280;57919;56.194;95.716;2023-02-03T13:48:31;100023.66;;;-13.74;60.52
70458;BME280;57919;56.194;95.716;2023-02-03T13:58:38;100040.41;;;-13.61;60.52
70458;BME280;57919;56.194;95.716;2023-02-03T14:08:45;100038.84;;;-13.53;60.93
70458;BME280;57919;56.194;95.716;2023-02-03T14:18:48;100022.16;;;-13.62;61.03
70458;BME280;57919;56.194;95.716;2023-02-03T14:28:51;100017.94;;;-13.57;60.75
70458;BME280;57919;56.194;95.716;2023-02-03T14:38:54;100024.28;;;-13.43;60.78
70458;BME280;57919;56.194;95.716;2023-02-03T14:49:28;100018.41;;;-13.34;60.81
70458;BME280;57919;56.194;95.716;2023-02-03T14:59:41;100011.63;;;-13.26;60.61
70458;BME280;57919;56.194;95.716;2023-02-03T15:09:46;100012.59;;;-13.21;60.88
70458;BME280;57919;56.194;95.716;2023-02-03T15:19:48;99974.13;;;-13.36;60.71
70458;BME280;57919;56.194;95.716;2023-02-03T15:29:52;100015.34;;;-13.12;60.97
70458;BME280;57919;56.194;95.716;2023-02-03T15:40:04;100011.06;;;-13.09;61.08
70458;BME280;57919;56.194;95.716;2023-02-03T15:50:40;100018.75;;;-13.16;60.60
70458;BME280;57919;56.194;95.716;2023-02-03T16:00:47;100003.75;;;-13.29;61.38
70458;BME280;57919;56.194;95.716;2023-02-03T16:10:50;99985.00;;;-13.57;61.47
70458;BME280;57919;56.194;95.716;2023-02-03T16:20:52;99979.53;;;-13.70;60.98
70458;BME280;57919;56.194;95.716;2023-02-03T16:31:02;100012.16;;;-13.85;60.76
70458;BME280;57919;56.194;95.716;2023-02-03T16:41:30;99994.03;;;-14.21;62.28
70458;BME280;57919;56.194;95.716;2023-02-03T16:51:51;100012.25;;;-14.19;62.10
70458;BME280;57919;56.194;95.716;2023-02-03T17:01:52;100010.16;;;-14.34;62.16
70458;BME280;57919;56.194;95.716;2023-02-03T17:11:54;100015.53;;;-14.26;62.40
70458;BME280;57919;56.194;95.716;2023-02-03T17:21:56;100021.47;;;-14.32;62.18
70458;BME280;57919;56.194;95.716;2023-02-03T17:31:58;100012.97;;;-14.25;62.08
70458;BME280;57919;56.194;95.716;2023-02-03T17:42:00;99999.78;;;-13.95;62.35
70458;BME280;57919;56.194;95.716;2023-02-03T17:52:02;100030.06;;;-13.58;61.91
70458;BME280;57919;56.194;95.716;2023-02-03T18:02:04;99994.34;;;-13.66;61.72
70458;BME280;57919;56.194;95.716;2023-02-03T18:12:06;100016.53;;;-13.42;61.67
70458;BME280;57919;56.194;95.716;2023-02-03T18:22:08;100015.84;;;-13.31;61.25
70458;BME280;57919;56.194;95.716;2023-02-03T18:32:10;100025.59;;;-13.21;61.75
70458;BME280;57919;56.194;95.716;2023-02-03T18:42:12;100017.53;;;-13.35;61.52
70458;BME280;57919;56.194;95.716;2023-02-03T18:52:14;100014.16;;;-13.72;62.86
70458;BME280;57919;56.194;95.716;2023-02-03T19:02:16;100019.97;;;-13.83;62.58
70458;BME280;57919;56.194;95.716;2023-02-03T19:12:18;100013.88;;;-13.85;62.99
70458;BME280;57919;56.194;95.716;2023-02-03T19:22:20;100014.47;;;-13.58;63.29
70458;BME280;57919;56.194;95.716;2023-02-03T19:32:22;100018.59;;;-13.25;62.28
70458;BME280;57919;56.194;95.716;2023-02-03T19:42:24;100013.59;;;-13.12;61.95
70458;BME280;57919;56.194;95.716;2023-02-03T19:52:26;100017.19;;;-13.05;62.03
70458;BME280;57919;56.194;95.716;2023-02-03T20:02:28;100008.34;;;-13.16;61.99
70458;BME280;57919;56.194;95.716;2023-02-03T20:12:29;99986.75;;;-13.56;63.28
70458;BME280;57919;56.194;95.716;2023-02-03T20:22:32;100005.75;;;-13.60;63.67
70458;BME280;57919;56.194;95.716;2023-02-03T20:32:34;99984.19;;;-13.54;63.72
70458;BME280;57919;56.194;95.716;2023-02-03T20:42:36;99999.63;;;-13.18;63.10
70458;BME280;57919;56.194;95.716;2023-02-03T20:52:38;100000.00;;;-12.97;62.48
70458;BME280;57919;56.194;95.716;2023-02-03T21:02:40;99978.94;;;-13.09;62.52
70458;BME280;57919;56.194;95.716;2023-02-03T21:13:15;100003.50;;;-12.95;62.53
70458;BME280;57919;56.194;95.716;2023-02-03T21:23:18;99984.22;;;-13.06;62.19
70458;BME280;57919;56.194;95.716;2023-02-03T21:33:32;100015.69;;;-12.92;62.32
70458;BME280;57919;56.194;95.716;2023-02-03T21:43:35;100000.59;;;-13.12;62.90
70458;BME280;57919;56.194;95.716;2023-02-03T21:53:37;100003.44;;;-13.45;63.34
70458;BME280;57919;56.194;95.716;2023-02-03T22:03:41;100012.25;;;-13.38;63.51
70458;BME280;57919;56.194;95.716;2023-02-03T22:13:47;100006.53;;;-13.20;63.27
70458;BME280;57919;56.194;95.716;2023-02-03T22:23:49;100006.75;;;-13.07;63.41
70458;BME280;57919;56.194;95.716;2023-02-03T22:33:51;100020.69;;;-13.04;63.36
70458;BME280;57919;56.194;95.716;2023-02-03T22:43:52;100044.97;;;-13.06;63.34
70458;BME280;57919;56.194;95.716;2023-02-03T22:53:54;100045.81;;;-13.07;63.15
70458;BME280;57919;56.194;95.716;2023-02-03T23:03:56;100010.03;;;-13.18;63.00
70458;BME280;57919;56.194;95.716;2023-02-03T23:13:58;100057.03;;;-13.09;62.80
70458;BME280;57919;56.194;95.716;2023-02-03T23:24:00;100052.47;;;-13.22;62.68
70458;BME280;57919;56.194;95.716;2023-02-03T23:34:02;100054.50;;;-13.50;62.53
70458;BME280;57919;56.194;95.716;2023-02-03T23:44:22;100066.50;;;-13.56;62.98
70458;BME280;57919;56.194;95.716;2023-02-03T23:54:24;100063.25;;;-13.46;62.99
